Time;durP1;ratioP1;P1;durP2;ratioP2;P2;SDS_P1;SDS_P2;PMS_P1;PMS_P2;Temp;Humidity;BMP_temperature;BMP_pressure;BME280_temperature;BME280_humidity;BME280_pressure;Samples;Min_cycle;Max_cycle;Signal;HPM_P1;HPM_P2
2021/03/06 00:23:44;;;;;;;;;;;-1.00;99.90;;;;;;10540390;28;19973;-90
2021/03/06 00:28:45;;;;;;;;;;;-1.10;99.90;;;;;;10514019;28;19931;-90
2021/03/06 00:33:46;;;;;;;;;;;-1.00;99.90;;;;;;10526104;28;20461;-90
2021/03/06 00:38:48;;;;;;;;;;;-1.10;99.90;;;;;;10510462;28;20383;-90
2021/03/06 00:43:49;;;;;;;;;;;-1.20;99.90;;;;;;10502923;28;19947;-90
2021/03/06 00:48:51;;;;;;;;;;;-1.30;99.90;;;;;;10527151;28;19924;-90
2021/03/06 00:53:52;;;;;;;;;;;0.10;99.90;;;;;;10527187;28;19924;-90
2021/03/06 00:58:53;;;;;;;;;;;-1.50;99.90;;;;;;10549917;28;19967;-90
2021/03/06 01:03:54;;;;;;;;;;;0.00;99.90;;;;;;10535082;28;20362;-90
2021/03/06 01:08:56;;;;;;;;;;;-1.00;99.90;;;;;;10535909;28;20019;-90
2021/03/06 01:13:57;;;;;;;;;;;0.30;99.90;;;;;;10537072;28;20015;-90
2021/03/06 01:18:58;;;;;;;;;;;0.60;99.90;;;;;;10521172;28;20403;-90
2021/03/06 01:24:00;;;;;;;;;;;-2.30;99.90;;;;;;10599612;28;19949;-90
2021/03/06 01:29:02;;;;;;;;;;;-1.50;99.90;;;;;;10583800;28;19924;-90
2021/03/06 01:34:03;;;;;;;;;;;-1.50;99.90;;;;;;10602938;28;20289;-90
2021/03/06 01:39:05;;;;;;;;;;;-1.50;99.90;;;;;;10601288;28;19966;-90
2021/03/06 01:44:06;;;;;;;;;;;-3.00;99.90;;;;;;10602604;28;19924;-90
2021/03/06 01:49:08;;;;;;;;;;;-1.50;99.90;;;;;;10604378;28;19923;-91
2021/03/06 01:54:10;;;;;;;;;;;-0.80;99.90;;;;;;10605552;28;19924;-90
2021/03/06 01:59:12;;;;;;;;;;;-1.00;99.90;;;;;;10606258;28;19946;-90
2021/03/06 02:04:13;;;;;;;;;;;-0.80;99.90;;;;;;10605594;28;19977;-90
2021/03/06 02:09:15;;;;;;;;;;;-2.20;99.90;;;;;;10605040;28;19924;-90
2021/03/06 02:14:16;;;;;;;;;;;-0.20;99.90;;;;;;10606667;28;19923;-91
2021/03/06 02:19:26;;;;;;;;;;;-0.30;99.90;;;;;;10606534;28;20263;-91
2021/03/06 02:24:35;;;;;;;;;;;0.90;99.90;;;;;;10603751;28;19930;-91
2021/03/06 02:29:37;;;;;;;;;;;-1.70;99.90;;;;;;10604452;28;19924;-91
2021/03/06 02:34:40;;;;;;;;;;;-2.70;99.90;;;;;;10603327;28;19930;-91
2021/03/06 02:39:43;;;;;;;;;;;-2.50;99.90;;;;;;10602452;28;20010;-91
2021/03/06 02:44:45;;;;;;;;;;;-1.50;99.90;;;;;;10600483;28;19923;-91
2021/03/06 02:49:51;;;;;;;;;;;-1.70;99.90;;;;;;10602962;28;19932;-91
2021/03/06 02:54:53;;;;;;;;;;;-1.60;99.90;;;;;;10599494;28;20275;-91
2021/03/06 03:00:00;;;;;;;;;;;0.60;99.90;;;;;;10578867;28;20366;-91
2021/03/06 03:05:07;;;;;;;;;;;0.70;99.90;;;;;;10595510;28;19924;-91
2021/03/06 03:10:14;;;;;;;;;;;-3.20;99.90;;;;;;10592848;28;20367;-91
2021/03/06 03:15:20;;;;;;;;;;;0.60;99.90;;;;;;10589111;28;20399;-92
2021/03/06 03:20:31;;;;;;;;;;;-1.80;99.90;;;;;;10588468;28;19974;-91
2021/03/06 03:25:34;;;;;;;;;;;-1.90;99.90;;;;;;10587272;28;19963;-91
2021/03/06 03:30:37;;;;;;;;;;;-0.60;99.90;;;;;;10585851;28;20022;-91
2021/03/06 03:35:39;;;;;;;;;;;0.10;99.90;;;;;;10584793;28;20023;-91
2021/03/06 03:40:40;;;;;;;;;;;-2.30;99.90;;;;;;10583693;28;19924;-92
2021/03/06 03:45:41;;;;;;;;;;;-2.10;99.90;;;;;;10567404;28;19930;-92
2021/03/06 03:50:43;;;;;;;;;;;-2.00;99.90;;;;;;10566366;28;19999;-92
2021/03/06 03:55:44;;;;;;;;;;;-2.40;99.90;;;;;;10566950;28;19924;-92
2021/03/06 04:00:45;;;;;;;;;;;-2.00;99.90;;;;;;10566515;28;19958;-92
2021/03/06 04:05:47;;;;;;;;;;;-2.30;99.90;;;;;;10550306;28;19971;-92
2021/03/06 04:10:48;;;;;;;;;;;-0.50;99.90;;;;;;10566522;28;19924;-92
2021/03/06 04:15:50;;;;;;;;;;;-2.20;99.90;;;;;;10549416;28;20319;-92
2021/03/06 04:20:52;;;;;;;;;;;-2.20;99.90;;;;;;10547888;28;19924;-92
2021/03/06 04:25:53;;;;;;;;;;;-2.20;99.90;;;;;;10527460;28;19928;-93
2021/03/06 04:30:55;;;;;;;;;;;-2.00;99.90;;;;;;10532714;28;19924;-92
2021/03/06 04:35:56;;;;;;;;;;;-2.00;99.90;;;;;;10532198;28;19928;-93
2021/03/06 04:40:57;;;;;;;;;;;-1.90;99.90;;;;;;10531662;28;19938;-93
2021/03/06 04:45:59;;;;;;;;;;;-0.40;99.90;;;;;;10531768;28;19924;-93
2021/03/06 04:51:00;;;;;;;;;;;-2.30;99.90;;;;;;10531248;28;20363;-93
2021/03/06 04:56:01;;;;;;;;;;;-1.40;99.90;;;;;;10531560;28;20016;-94
2021/03/06 05:01:03;;;;;;;;;;;-1.80;99.90;;;;;;10530491;28;19924;-93
2021/03/06 05:06:04;;;;;;;;;;;-2.50;99.90;;;;;;10530555;28;20375;-92
2021/03/06 05:11:06;;;;;;;;;;;-2.50;99.90;;;;;;10530592;28;20375;-93
2021/03/06 05:16:08;;;;;;;;;;;-2.50;99.90;;;;;;10531092;28;19928;-94
2021/03/06 05:21:09;;;;;;;;;;;-2.40;99.90;;;;;;10566324;27;19924;-93
2021/03/06 05:26:11;;;;;;;;;;;-3.10;99.90;;;;;;10597692;27;19979;-93
2021/03/06 05:31:12;;;;;;;;;;;-0.80;99.90;;;;;;10632992;27;20009;-93
2021/03/06 05:36:13;;;;;;;;;;;-1.40;99.90;;;;;;10614136;27;19927;-93
2021/03/06 05:41:18;;;;;;;;;;;-0.10;99.90;;;;;;10607079;27;20301;-93
2021/03/06 05:46:19;;;;;;;;;;;-2.20;99.90;;;;;;10570559;28;20371;-94
2021/03/06 05:51:21;;;;;;;;;;;-1.90;99.90;;;;;;10545007;22;19984;-83
2021/03/06 05:56:22;;;;;;;;;;;-2.40;99.90;;;;;;10522872;28;19925;-83
2021/03/06 06:01:24;;;;;;;;;;;-2.60;99.90;;;;;;10524701;28;19950;-83
2021/03/06 06:06:26;;;;;;;;;;;-2.60;99.90;;;;;;10524602;28;19931;-84
2021/03/06 06:11:27;;;;;;;;;;;-2.50;99.90;;;;;;10524458;28;19924;-83
2021/03/06 06:16:30;;;;;;;;;;;-2.60;99.90;;;;;;10523003;28;19935;-83
2021/03/06 06:21:37;;;;;;;;;;;-2.50;99.90;;;;;;10523629;28;20014;-83
2021/03/06 06:26:39;;;;;;;;;;;-2.50;99.90;;;;;;10523791;28;19924;-83
2021/03/06 06:31:51;;;;;;;;;;;-1.00;99.90;;;;;;10522897;28;20385;-83
2021/03/06 06:36:54;;;;;;;;;;;-2.30;99.90;;;;;;10538158;28;20367;-83
2021/03/06 06:41:57;;;;;;;;;;;-2.30;99.90;;;;;;10520750;28;19928;-83
2021/03/06 06:47:08;;;;;;;;;;;-2.30;99.90;;;;;;10521945;28;20263;-83
2021/03/06 06:52:10;;;;;;;;;;;-2.10;99.90;;;;;;10537133;28;20322;-83
2021/03/06 06:57:11;;;;;;;;;;;-1.50;99.90;;;;;;10521484;28;19925;-84
2021/03/06 07:02:12;;;;;;;;;;;0.60;99.90;;;;;;10521380;28;20389;-83
2021/03/06 07:07:14;;;;;;;;;;;1.60;99.90;;;;;;10536423;28;19934;-83
2021/03/06 07:12:16;;;;;;;;;;;1.10;99.90;;;;;;10520994;28;19928;-83
2021/03/06 07:17:17;;;;;;;;;;;1.30;99.90;;;;;;10519381;28;20019;-83
2021/03/06 07:22:26;;;;;;;;;;;1.80;99.90;;;;;;10518832;28;19924;-83
2021/03/06 07:27:28;;;;;;;;;;;2.30;99.90;;;;;;10520844;28;19957;-83
2021/03/06 07:32:31;;;;;;;;;;;2.40;99.90;;;;;;10537130;28;19928;-84
2021/03/06 07:37:33;;;;;;;;;;;2.70;99.90;;;;;;10516924;28;20008;-84
2021/03/06 07:42:47;;;;;;;;;;;4.90;99.90;;;;;;10518961;28;19932;-84
2021/03/06 07:47:57;;;;;;;;;;;3.40;99.90;;;;;;10536169;28;19946;-84
2021/03/06 07:53:00;;;;;;;;;;;3.90;99.90;;;;;;10537436;28;19925;-85
2021/03/06 07:58:02;;;;;;;;;;;5.00;99.90;;;;;;10519011;28;19924;-84
2021/03/06 08:03:35;;;;;;;;;;;6.50;99.90;;;;;;10535642;28;19928;-85
2021/03/06 08:08:40;;;;;;;;;;;5.70;99.90;;;;;;10493628;28;19973;-86
2021/03/06 08:13:43;;;;;;;;;;;6.30;99.90;;;;;;10520275;28;19924;-86
2021/03/06 08:18:44;;;;;;;;;;;6.40;99.90;;;;;;10534963;28;19924;-86
2021/03/06 08:23:45;;;;;;;;;;;6.50;99.90;;;;;;10519755;28;19930;-86
2021/03/06 08:28:49;;;;;;;;;;;7.10;99.90;;;;;;10519221;28;19935;-86
2021/03/06 08:34:11;;;;;;;;;;;6.60;99.90;;;;;;10501333;28;20325;-86
2021/03/06 08:39:12;;;;;;;;;;;6.80;99.90;;;;;;10531582;28;19931;-85
2021/03/06 08:44:13;;;;;;;;;;;6.80;99.90;;;;;;10515364;28;19928;-86
2021/03/06 08:49:14;;;;;;;;;;;6.80;99.90;;;;;;10533019;28;19928;-85
2021/03/06 08:54:16;;;;;;;;;;;9.20;99.90;;;;;;10518083;28;19931;-86
2021/03/06 08:59:17;;;;;;;;;;;11.90;99.90;;;;;;10534874;28;19946;-86
2021/03/06 09:04:19;;;;;;;;;;;;;;;;;;10521069;28;20393;-87
2021/03/06 09:09:26;;;;;;;;;;;8.70;99.90;;;;;;10538842;28;20754;-86
2021/03/06 09:14:28;;;;;;;;;;;9.40;99.90;;;;;;10524204;28;19930;-86
2021/03/06 09:19:30;;;;;;;;;;;10.00;96.70;;;;;;10526437;28;19930;-86
2021/03/06 09:24:48;;;;;;;;;;;8.80;95.70;;;;;;10526462;28;19928;-86
2021/03/06 09:29:50;;;;;;;;;;;;;;;;;;10542641;28;19924;-86
2021/03/06 09:34:51;;;;;;;;;;;;;;;;;;10526241;28;19928;-86
2021/03/06 09:39:53;;;;;;;;;;;;;;;;;;10525124;28;20268;-86
2021/03/06 09:44:54;;;;;;;;;;;9.10;99.90;;;;;;10525460;28;19947;-86
2021/03/06 09:49:56;;;;;;;;;;;9.90;90.50;;;;;;10540546;28;19945;-86
2021/03/06 09:54:57;;;;;;;;;;;9.40;95.00;;;;;;10525285;28;19935;-86
2021/03/06 09:59:59;;;;;;;;;;;10.60;93.90;;;;;;10524961;28;19924;-86
2021/03/06 10:05:00;;;;;;;;;;;10.00;90.40;;;;;;10524499;28;19935;-86
2021/03/06 10:10:01;;;;;;;;;;;8.90;90.50;;;;;;10542054;28;19998;-86
2021/03/06 10:15:03;;;;;;;;;;;8.60;92.80;;;;;;10539518;28;19924;-86
2021/03/06 10:20:04;;;;;;;;;;;8.00;95.50;;;;;;10523741;28;19939;-86
2021/03/06 10:25:06;;;;;;;;;;;8.90;92.70;;;;;;10540308;28;19924;-86
2021/03/06 10:30:10;;;;;;;;;;;9.10;92.50;;;;;;10541151;28;19931;-86
2021/03/06 10:35:30;;;;;;;;;;;9.20;92.10;;;;;;10540745;28;19967;-86
2021/03/06 10:40:41;;;;;;;;;;;10.10;85.40;;;;;;10520514;28;19928;-86
2021/03/06 10:45:42;;;;;;;;;;;9.30;85.30;;;;;;10531940;28;20363;-86
2021/03/06 10:50:43;;;;;;;;;;;8.30;87.90;;;;;;10522049;28;19946;-86
2021/03/06 10:55:45;;;;;;;;;;;8.10;89.70;;;;;;10519354;28;19934;-86
2021/03/06 11:00:47;;;;;;;;;;;10.20;76.30;;;;;;10517620;28;19975;-86
2021/03/06 11:05:57;;;;;;;;;;;9.90;91.10;;;;;;10511544;28;19924;-86
2021/03/06 11:10:58;;;;;;;;;;;8.00;85.50;;;;;;10534952;28;19928;-86
2021/03/06 11:15:59;;;;;;;;;;;7.00;88.70;;;;;;10515027;28;19928;-85
2021/03/06 11:21:01;;;;;;;;;;;7.70;86.00;;;;;;10527016;28;20298;-86
2021/03/06 11:26:03;;;;;;;;;;;8.10;85.70;;;;;;10498913;28;19935;-86
2021/03/06 11:31:04;;;;;;;;;;;9.00;77.40;;;;;;10473533;28;20294;-86
2021/03/06 11:36:06;;;;;;;;;;;8.50;77.00;;;;;;10475331;28;19958;-86
2021/03/06 11:41:07;;;;;;;;;;;7.70;83.10;;;;;;10514981;28;19950;-87
2021/03/06 11:46:08;;;;;;;;;;;8.00;86.30;;;;;;10529763;28;19934;-87
2021/03/06 11:51:17;;;;;;;;;;;8.50;79.70;;;;;;10519777;22;19924;-86
2021/03/06 11:56:18;;;;;;;;;;;8.90;74.10;;;;;;10499043;28;19931;-86
2021/03/06 12:01:19;;;;;;;;;;;8.20;79.70;;;;;;10538612;28;19943;-87
2021/03/06 12:06:20;;;;;;;;;;;9.90;82.90;;;;;;10556650;28;19927;-86
2021/03/06 12:11:22;;;;;;;;;;;8.40;74.40;;;;;;10574407;28;19927;-86
2021/03/06 12:16:23;;;;;;;;;;;9.00;77.70;;;;;;10526691;28;20382;-86
2021/03/06 12:21:25;;;;;;;;;;;8.20;74.90;;;;;;10513981;28;19979;-87
2021/03/06 12:26:26;;;;;;;;;;;8.40;72.90;;;;;;10530919;28;20413;-87
2021/03/06 12:31:27;;;;;;;;;;;7.70;76.60;;;;;;10528655;28;19928;-87
2021/03/06 12:36:29;;;;;;;;;;;8.50;78.40;;;;;;10530789;28;19928;-86
2021/03/06 12:41:31;;;;;;;;;;;;;;;;;;10514052;28;19928;-86
2021/03/06 12:46:32;;;;;;;;;;;8.10;73.50;;;;;;10516194;28;19928;-86
2021/03/06 12:51:34;;;;;;;;;;;8.50;74.80;;;;;;10520922;28;19978;-87
2021/03/06 12:56:35;;;;;;;;;;;7.70;74.20;;;;;;10528638;28;20448;-87
2021/03/06 13:01:37;;;;;;;;;;;7.80;73.00;;;;;;10535951;28;19924;-87
2021/03/06 13:06:39;;;;;;;;;;;8.70;76.30;;;;;;10536911;28;19940;-87
2021/03/06 13:11:41;;;;;;;;;;;7.90;75.00;;;;;;10485051;28;19928;-87
2021/03/06 13:16:42;;;;;;;;;;;7.90;72.70;;;;;;10519719;28;20453;-87
2021/03/06 13:21:44;;;;;;;;;;;8.30;72.50;;;;;;10519688;28;19928;-87
2021/03/06 13:26:45;;;;;;;;;;;8.40;70.20;;;;;;10537636;28;19998;-87
2021/03/06 13:31:48;;;;;;;;;;;7.70;70.80;;;;;;10518127;28;19928;-87
2021/03/06 13:36:49;;;;;;;;;;;8.20;70.80;;;;;;10517973;28;19928;-87
2021/03/06 13:41:54;;;;;;;;;;;8.20;68.80;;;;;;10517737;28;19979;-87
2021/03/06 13:46:55;;;;;;;;;;;8.50;68.00;;;;;;10517646;28;19931;-87
2021/03/06 13:51:56;;;;;;;;;;;7.00;72.70;;;;;;10518127;28;19936;-87
2021/03/06 13:56:58;;;;;;;;;;;7.60;74.50;;;;;;10534021;28;20394;-88
2021/03/06 14:01:59;;;;;;;;;;;8.00;70.80;;;;;;10534073;28;19928;-87
2021/03/06 14:07:01;;;;;;;;;;;8.40;72.40;;;;;;10513209;28;19924;-87
2021/03/06 14:12:03;;;;;;;;;;;8.00;72.70;;;;;;10495144;28;19936;-86
2021/03/06 14:17:04;;;;;;;;;;;7.90;69.90;;;;;;10518272;28;19934;-86
2021/03/06 14:22:06;;;;;;;;;;;7.40;72.20;;;;;;10518599;28;20371;-86
2021/03/06 14:27:07;;;;;;;;;;;7.70;72.50;;;;;;10518863;28;19934;-86
2021/03/06 14:32:26;;;;;;;;;;;7.50;67.70;;;;;;10494668;28;19924;-86
2021/03/06 14:37:28;;;;;;;;;;;7.30;70.70;;;;;;10539525;28;20011;-87
2021/03/06 14:42:29;;;;;;;;;;;7.30;70.40;;;;;;10536313;28;20280;-86
2021/03/06 14:47:31;;;;;;;;;;;7.50;70.60;;;;;;10518980;28;19936;-86
2021/03/06 14:52:33;;;;;;;;;;;8.80;71.80;;;;;;10534486;28;20256;-86
2021/03/06 14:57:34;;;;;;;;;;;7.20;70.40;;;;;;10517497;28;19934;-86
2021/03/06 15:02:36;;;;;;;;;;;7.30;71.50;;;;;;10534496;28;19928;-87
2021/03/06 15:07:38;;;;;;;;;;;7.30;73.90;;;;;;10533126;28;19928;-86
2021/03/06 15:12:40;;;;;;;;;;;7.70;70.40;;;;;;10516446;28;19928;-86
2021/03/06 15:17:41;;;;;;;;;;;7.90;70.80;;;;;;10515486;28;20439;-86
2021/03/06 15:22:43;;;;;;;;;;;7.30;71.30;;;;;;10533611;28;19942;-86
2021/03/06 15:27:44;;;;;;;;;;;9.90;77.20;;;;;;10513582;28;19929;-86
2021/03/06 15:32:46;;;;;;;;;;;7.70;72.00;;;;;;10469578;28;20369;-86
2021/03/06 15:37:50;;;;;;;;;;;8.10;72.10;;;;;;10506254;28;20375;-87
2021/03/06 15:42:51;;;;;;;;;;;7.50;73.30;;;;;;10531697;28;19927;-87
2021/03/06 15:47:54;;;;;;;;;;;7.90;79.90;;;;;;10531421;28;20922;-87
2021/03/06 15:52:55;;;;;;;;;;;7.40;81.40;;;;;;10530866;28;19931;-87
2021/03/06 15:57:57;;;;;;;;;;;7.90;80.00;;;;;;10531414;28;19929;-87
2021/03/06 16:02:58;;;;;;;;;;;7.10;85.00;;;;;;10514194;28;19924;-87
2021/03/06 16:08:00;;;;;;;;;;;8.10;85.10;;;;;;10513496;28;20283;-87
2021/03/06 16:13:01;;;;;;;;;;;6.70;86.60;;;;;;10513566;28;19928;-87
2021/03/06 16:18:03;;;;;;;;;;;6.60;85.70;;;;;;10531504;28;19934;-87
2021/03/06 16:23:08;;;;;;;;;;;6.50;90.60;;;;;;10560755;28;19943;-87
2021/03/06 16:28:10;;;;;;;;;;;6.80;89.90;;;;;;10562367;28;19971;-87
2021/03/06 16:33:11;;;;;;;;;;;6.10;91.90;;;;;;10541252;28;20478;-87
2021/03/06 16:38:22;;;;;;;;;;;7.90;91.80;;;;;;10524341;28;20390;-87
2021/03/06 16:43:25;;;;;;;;;;;5.90;93.60;;;;;;10521594;28;20402;-87
2021/03/06 16:48:27;;;;;;;;;;;8.20;97.90;;;;;;10521976;28;19936;-87
2021/03/06 16:53:28;;;;;;;;;;;5.70;95.90;;;;;;10538990;28;19928;-87
2021/03/06 16:58:30;;;;;;;;;;;6.10;95.00;;;;;;10520597;28;19928;-88
2021/03/06 17:03:32;;;;;;;;;;;7.90;97.10;;;;;;10521444;28;19934;-87
2021/03/06 17:08:45;;;;;;;;;;;7.00;96.70;;;;;;10538220;28;19928;-87
2021/03/06 17:13:46;;;;;;;;;;;5.10;97.50;;;;;;10521043;28;20345;-87
2021/03/06 17:18:48;;;;;;;;;;;6.60;98.90;;;;;;10545067;28;19924;-87
2021/03/06 17:23:50;;;;;;;;;;;7.20;99.40;;;;;;10579140;28;20392;-88
2021/03/06 17:28:51;;;;;;;;;;;4.20;99.90;;;;;;10555737;28;19928;-87
2021/03/06 17:33:52;;;;;;;;;;;4.70;99.90;;;;;;10518533;28;19928;-87
2021/03/06 17:39:06;;;;;;;;;;;4.00;99.90;;;;;;10521662;28;20279;-87
2021/03/06 17:44:07;;;;;;;;;;;5.00;99.90;;;;;;10520211;28;19930;-87
2021/03/06 17:49:09;;;;;;;;;;;3.50;99.90;;;;;;10541348;22;19924;-88
2021/03/06 17:54:10;;;;;;;;;;;3.10;99.90;;;;;;10506717;28;19929;-88
2021/03/06 17:59:11;;;;;;;;;;;2.90;99.90;;;;;;10461697;28;19924;-88
2021/03/06 18:04:13;;;;;;;;;;;2.90;99.90;;;;;;10462379;28;19924;-88
2021/03/06 18:09:27;;;;;;;;;;;2.80;99.90;;;;;;10487824;28;19967;-88
2021/03/06 18:14:30;;;;;;;;;;;5.10;99.90;;;;;;10517515;28;19931;-87
2021/03/06 18:19:32;;;;;;;;;;;2.70;99.90;;;;;;10484743;28;20357;-88
2021/03/06 18:24:35;;;;;;;;;;;2.90;99.90;;;;;;10501704;28;19928;-88
2021/03/06 18:29:38;;;;;;;;;;;2.50;99.90;;;;;;10493124;28;19924;-88
2021/03/06 18:34:39;;;;;;;;;;;2.40;99.90;;;;;;10540713;28;20382;-88
2021/03/06 18:39:52;;;;;;;;;;;2.30;99.90;;;;;;10508633;28;19928;-88
2021/03/06 18:45:10;;;;;;;;;;;2.00;99.90;;;;;;10483562;28;20019;-87
2021/03/06 18:50:13;;;;;;;;;;;2.10;99.90;;;;;;10482485;28;20282;-88
2021/03/06 18:55:15;;;;;;;;;;;1.90;99.90;;;;;;10482214;28;20394;-88
2021/03/06 19:00:18;;;;;;;;;;;1.80;99.90;;;;;;10499203;28;20290;-89
2021/03/06 19:05:19;;;;;;;;;;;1.90;99.90;;;;;;10481394;28;20011;-88
2021/03/06 19:10:21;;;;;;;;;;;1.80;99.90;;;;;;10499646;28;20011;-87
2021/03/06 19:15:23;;;;;;;;;;;1.50;99.90;;;;;;10499233;28;20015;-84
2021/03/06 19:20:24;;;;;;;;;;;1.30;99.90;;;;;;10507549;28;20013;-84
2021/03/06 19:25:28;;;;;;;;;;;1.90;99.90;;;;;;10541006;28;19928;-84
2021/03/06 19:30:29;;;;;;;;;;;1.20;99.90;;;;;;10530315;28;19979;-84
2021/03/06 19:35:31;;;;;;;;;;;1.20;99.90;;;;;;10533797;28;20023;-84
2021/03/06 19:40:35;;;;;;;;;;;1.10;99.90;;;;;;10537718;28;19963;-85
2021/03/06 19:45:39;;;;;;;;;;;1.00;99.90;;;;;;10484896;28;19928;-85
2021/03/06 19:50:40;;;;;;;;;;;0.90;99.90;;;;;;10504211;28;20005;-85
2021/03/06 19:55:42;;;;;;;;;;;0.90;99.90;;;;;;10520710;28;19924;-84
2021/03/06 20:00:44;;;;;;;;;;;1.10;99.90;;;;;;10521987;28;19968;-84
2021/03/06 20:05:46;;;;;;;;;;;0.80;99.90;;;;;;10498734;28;19928;-85
2021/03/06 20:10:57;;;;;;;;;;;2.50;99.90;;;;;;10501545;28;19928;-85
2021/03/06 20:15:59;;;;;;;;;;;0.70;99.90;;;;;;10496884;28;19925;-84
2021/03/06 20:21:01;;;;;;;;;;;0.70;99.90;;;;;;10486723;28;20425;-84
2021/03/06 20:26:03;;;;;;;;;;;0.60;99.90;;;;;;10472648;28;20015;-84
2021/03/06 20:31:05;;;;;;;;;;;1.00;99.90;;;;;;10497092;28;19928;-85
2021/03/06 20:36:06;;;;;;;;;;;2.10;99.90;;;;;;10530152;28;19986;-84
2021/03/06 20:41:18;;;;;;;;;;;0.40;99.90;;;;;;10531766;28;19928;-84
2021/03/06 20:46:19;;;;;;;;;;;0.50;99.90;;;;;;10496186;28;20306;-84
2021/03/06 20:51:21;;;;;;;;;;;0.30;99.90;;;;;;10485275;28;19924;-84
2021/03/06 20:56:22;;;;;;;;;;;0.30;99.90;;;;;;10531252;28;20375;-84
2021/03/06 21:01:24;;;;;;;;;;;1.40;99.90;;;;;;10531320;28;19928;-84
2021/03/06 21:06:25;;;;;;;;;;;1.80;99.90;;;;;;10504008;28;20019;-84
2021/03/06 21:11:39;;;;;;;;;;;0.10;99.90;;;;;;10521384;28;19931;-84
2021/03/06 21:16:41;;;;;;;;;;;1.20;99.90;;;;;;10497175;28;19963;-84
2021/03/06 21:21:42;;;;;;;;;;;0.10;99.90;;;;;;10510236;28;19935;-84
2021/03/06 21:26:43;;;;;;;;;;;2.50;99.90;;;;;;10478472;28;19934;-84
2021/03/06 21:31:44;;;;;;;;;;;0.10;99.90;;;;;;10496134;28;19928;-84
2021/03/06 21:36:46;;;;;;;;;;;0.00;99.90;;;;;;10477332;28;19932;-84
2021/03/06 21:42:04;;;;;;;;;;;0.00;99.90;;;;;;10479980;28;19924;-84
2021/03/06 21:47:05;;;;;;;;;;;0.00;99.90;;;;;;10487980;28;19928;-84
2021/03/06 21:52:07;;;;;;;;;;;-0.10;99.90;;;;;;10497654;28;19977;-84
2021/03/06 21:57:08;;;;;;;;;;;0.00;99.90;;;;;;10517967;28;19928;-84
2021/03/06 22:02:09;;;;;;;;;;;0.00;99.90;;;;;;10518485;28;19935;-84
2021/03/06 22:07:11;;;;;;;;;;;2.70;99.90;;;;;;10488705;28;19964;-84
2021/03/06 22:12:27;;;;;;;;;;;0.90;99.90;;;;;;10478841;28;19929;-84
2021/03/06 22:17:28;;;;;;;;;;;2.50;99.90;;;;;;10482555;28;19936;-84
2021/03/06 22:22:30;;;;;;;;;;;-0.50;99.90;;;;;;10488690;28;19935;-85
2021/03/06 22:27:31;;;;;;;;;;;-0.30;99.90;;;;;;10459329;28;19935;-85
2021/03/06 22:32:33;;;;;;;;;;;-0.30;99.90;;;;;;10504101;28;19936;-85
2021/03/06 22:37:35;;;;;;;;;;;-0.40;99.90;;;;;;10522421;28;19928;-85
2021/03/06 22:42:48;;;;;;;;;;;-0.30;99.90;;;;;;10523983;28;19924;-85
2021/03/06 22:47:49;;;;;;;;;;;-0.20;99.90;;;;;;10521285;28;19930;-85
2021/03/06 22:52:51;;;;;;;;;;;0.80;99.90;;;;;;10506062;28;20298;-85
2021/03/06 22:57:53;;;;;;;;;;;0.40;99.90;;;;;;10540494;28;20438;-85
2021/03/06 23:02:54;;;;;;;;;;;-0.40;99.90;;;;;;10522687;28;19955;-85
2021/03/06 23:07:55;;;;;;;;;;;-0.40;99.90;;;;;;10489440;28;19935;-85
2021/03/06 23:13:09;;;;;;;;;;;-0.50;99.90;;;;;;10514059;28;19929;-85
2021/03/06 23:18:11;;;;;;;;;;;-0.50;99.90;;;;;;10532157;28;19923;-84
2021/03/06 23:23:12;;;;;;;;;;;-0.50;99.90;;;;;;10539913;28;19969;-85
2021/03/06 23:28:14;;;;;;;;;;;-0.60;99.90;;;;;;10466350;28;20367;-85
2021/03/06 23:33:16;;;;;;;;;;;-0.60;99.90;;;;;;10478925;28;19994;-85
2021/03/06 23:38:19;;;;;;;;;;;-0.20;99.90;;;;;;10479058;28;20303;-85
2021/03/06 23:43:30;;;;;;;;;;;-0.60;99.90;;;;;;10514240;28;20340;-85
2021/03/06 23:48:42;;;;;;;;;;;-0.60;99.90;;;;;;10513257;22;19954;-86
2021/03/06 23:53:43;;;;;;;;;;;-0.10;99.90;;;;;;10480263;28;19928;-86
2021/03/06 23:58:44;;;;;;;;;;;1.10;99.90;;;;;;10521842;28;19967;-86
